createdAt,value
2022-09-09T00:00:18.238Z,76.62
2022-09-09T00:02:54.046Z,76.37
2022-09-09T00:05:28.563Z,76.27
2022-09-09T00:07:57.052Z,76.41
2022-09-09T00:10:37.548Z,76.44
2022-09-09T00:13:25.081Z,76.46
2022-09-09T00:16:00.996Z,76.47
2022-09-09T00:18:47.001Z,76.37
2022-09-09T00:21:18.329Z,76.54
2022-09-09T00:23:55.715Z,76.48
2022-09-09T00:26:45.340Z,76.49
2022-09-09T00:29:36.350Z,76.40
2022-09-09T00:32:13.973Z,76.47
2022-09-09T00:34:52.283Z,76.59
2022-09-09T00:37:21.062Z,76.46
2022-09-09T00:39:49.100Z,76.28
2022-09-09T00:42:19.346Z,76.29
2022-09-09T00:44:55.259Z,76.33
2022-09-09T00:47:51.586Z,76.95
2022-09-09T00:50:35.877Z,76.48
2022-09-09T00:53:19.403Z,76.50
2022-09-09T00:55:49.265Z,76.42
2022-09-09T00:58:16.028Z,76.59
2022-09-09T01:00:46.480Z,76.73
2022-09-09T01:03:23.215Z,76.32
2022-09-09T01:05:59.259Z,76.20
2022-09-09T01:08:47.595Z,76.34
2022-09-09T01:11:22.427Z,76.51
2022-09-09T01:13:55.358Z,76.65
2022-09-09T01:16:22.345Z,76.33
2022-09-09T01:18:50.970Z,76.47
2022-09-09T01:21:42.291Z,76.38
2022-09-09T01:24:19.440Z,76.64
2022-09-09T01:27:02.537Z,76.44
2022-09-09T01:29:29.923Z,76.76
2022-09-09T01:31:58.414Z,77.34
2022-09-09T01:34:28.717Z,77.23
2022-09-09T01:37:07.332Z,77.67
2022-09-09T01:39:36.489Z,77.50
2022-09-09T01:42:09.402Z,77.13
2022-09-09T01:44:37.246Z,77.37
2022-09-09T01:47:05.371Z,77.16
2022-09-09T01:49:33.792Z,77.09
2022-09-09T01:52:07.134Z,77.10
2022-09-09T01:54:37.370Z,76.88
2022-09-09T01:57:26.006Z,76.72
2022-09-09T01:59:53.305Z,76.96
2022-09-09T02:02:29.519Z,76.80
2022-09-09T02:05:38.580Z,76.89
2022-09-09T02:08:22.417Z,76.41
2022-09-09T02:10:59.647Z,76.34
2022-09-09T02:13:38.175Z,77.42
2022-09-09T02:16:22.078Z,77.18
2022-09-09T02:18:50.506Z,77.01
2022-09-09T02:21:20.442Z,76.64
2022-09-09T02:23:48.989Z,76.40
2022-09-09T02:26:21.309Z,76.69
2022-09-09T02:28:52.572Z,76.78
2022-09-09T02:31:21.661Z,76.39
2022-09-09T02:33:55.818Z,76.44
2022-09-09T02:36:24.868Z,76.25
2022-09-09T02:38:54.884Z,76.12
2022-09-09T02:41:29.290Z,75.99
2022-09-09T02:43:58.032Z,76.10
2022-09-09T02:46:50.287Z,76.08
2022-09-09T02:49:56.888Z,76.27
2022-09-09T02:52:48.168Z,76.16
2022-09-09T02:55:24.804Z,76.39
2022-09-09T02:57:54.547Z,76.35
2022-09-09T03:00:27.295Z,76.03
2022-09-09T03:02:55.740Z,75.81
2022-09-09T03:05:22.704Z,75.71
2022-09-09T03:07:51.705Z,75.88
2022-09-09T03:10:20.335Z,75.74
2022-09-09T03:12:47.452Z,75.78
2022-09-09T03:15:15.812Z,75.70
2022-09-09T03:17:42.767Z,75.72
2022-09-09T03:20:09.969Z,75.60
2022-09-09T03:22:38.216Z,75.52
2022-09-09T03:25:05.578Z,75.80
2022-09-09T03:27:33.821Z,75.69
2022-09-09T03:30:04.877Z,75.90
2022-09-09T03:32:32.500Z,75.66
2022-09-09T03:34:59.334Z,75.44
2022-09-09T03:37:26.527Z,75.88
2022-09-09T03:39:55.639Z,75.86
2022-09-09T03:42:23.540Z,75.71
2022-09-09T03:44:53.614Z,75.50
2022-09-09T03:47:23.654Z,75.67
2022-09-09T03:49:54.260Z,75.58
2022-09-09T03:52:23.872Z,75.32
2022-09-09T03:54:52.550Z,75.39
2022-09-09T03:57:20.197Z,75.53
2022-09-09T03:59:46.958Z,75.50
2022-09-09T04:02:13.727Z,75.63
2022-09-09T04:04:40.807Z,75.64
2022-09-09T04:07:08.055Z,75.49
2022-09-09T04:09:35.899Z,75.42
2022-09-09T04:12:03.142Z,75.59
2022-09-09T04:14:30.862Z,75.70
2022-09-09T04:16:59.492Z,75.60
2022-09-09T04:19:26.934Z,75.72
2022-09-09T04:21:54.321Z,75.60
2022-09-09T04:24:22.793Z,75.40
2022-09-09T04:26:50.282Z,75.71
2022-09-09T04:29:17.678Z,75.80
2022-09-09T04:31:44.512Z,75.67
2022-09-09T04:34:11.381Z,75.68
2022-09-09T04:36:38.367Z,75.52
2022-09-09T04:39:06.312Z,75.52
2022-09-09T04:41:33.184Z,75.80
2022-09-09T04:44:01.855Z,75.83
2022-09-09T04:46:28.664Z,76.02
2022-09-09T04:48:55.574Z,76.42
2022-09-09T04:51:26.607Z,76.02
2022-09-09T04:53:55.215Z,76.11
2022-09-09T04:56:22.331Z,76.42
2022-09-09T04:58:54.772Z,76.96
2022-09-09T05:01:25.843Z,77.31
2022-09-09T05:03:54.735Z,77.36
2022-09-09T05:06:23.697Z,77.59
2022-09-09T05:08:54.996Z,77.80
2022-09-09T05:11:27.983Z,77.52
2022-09-09T05:13:59.708Z,77.48
2022-09-09T05:16:27.715Z,77.43
2022-09-09T05:18:55.313Z,77.45
2022-09-09T05:21:24.241Z,77.48
2022-09-09T05:23:52.437Z,77.83
2022-09-09T05:26:22.077Z,78.11
2022-09-09T05:28:50.730Z,78.33
2022-09-09T05:31:19.106Z,78.41
2022-09-09T05:33:50.529Z,78.31
2022-09-09T05:36:21.783Z,78.76
2022-09-09T05:38:54.841Z,79.01
2022-09-09T05:41:22.130Z,78.99
2022-09-09T05:43:49.924Z,78.82
2022-09-09T05:46:21.973Z,78.85
2022-09-09T05:48:52.608Z,80.19
2022-09-09T05:51:23.096Z,81.40
2022-09-09T05:53:50.242Z,81.28
2022-09-09T05:56:19.844Z,81.18
2022-09-09T05:58:48.081Z,81.20
2022-09-09T06:01:17.890Z,81.75
2022-09-09T06:03:46.451Z,81.48
2022-09-09T06:06:15.406Z,81.61
2022-09-09T06:08:45.337Z,81.14
2022-09-09T06:11:22.694Z,81.98
2022-09-09T06:13:54.548Z,82.49
2022-09-09T06:16:26.331Z,81.59
2022-09-09T06:18:55.023Z,82.52
2022-09-09T06:21:28.892Z,84.34
2022-09-09T06:24:00.199Z,84.23
2022-09-09T06:26:33.867Z,84.35
2022-09-09T06:29:03.547Z,84.46
2022-09-09T06:31:31.878Z,83.39
2022-09-09T06:34:03.292Z,83.68
2022-09-09T06:36:32.441Z,83.39
2022-09-09T06:38:59.382Z,82.34
2022-09-09T06:41:28.190Z,82.31
2022-09-09T06:43:56.630Z,82.26
2022-09-09T06:46:34.395Z,81.74
2022-09-09T06:49:01.901Z,81.40
2022-09-09T06:51:30.711Z,80.82
2022-09-09T06:53:59.440Z,80.81
2022-09-09T06:56:29.251Z,80.63
2022-09-09T06:59:05.741Z,81.41
2022-09-09T07:01:38.801Z,82.28
2022-09-09T07:04:10.142Z,81.59
2022-09-09T07:06:45.488Z,82.27
2022-09-09T07:09:17.158Z,82.50
2022-09-09T07:11:52.689Z,82.66
2022-09-09T07:14:21.021Z,83.03
2022-09-09T07:16:54.532Z,82.33
2022-09-09T07:19:24.850Z,82.68
2022-09-09T07:21:53.773Z,83.04
2022-09-09T07:24:23.036Z,83.71
2022-09-09T07:26:49.878Z,82.85
2022-09-09T07:29:20.553Z,82.30
2022-09-09T07:31:48.759Z,81.01
2022-09-09T07:34:20.180Z,81.94
2022-09-09T07:36:47.822Z,80.67
2022-09-09T07:39:15.701Z,80.53
2022-09-09T07:41:49.448Z,79.25
2022-09-09T07:44:22.543Z,79.18
2022-09-09T07:46:52.477Z,78.00
2022-09-09T07:49:29.747Z,78.19
2022-09-09T07:51:59.859Z,77.18
2022-09-09T07:54:27.351Z,77.05
2022-09-09T07:56:54.411Z,76.32
2022-09-09T07:59:25.240Z,75.01
2022-09-09T08:01:55.850Z,72.26
2022-09-09T08:04:27.246Z,72.88
2022-09-09T08:06:57.102Z,73.67
2022-09-09T08:09:28.117Z,72.83
2022-09-09T08:11:57.940Z,72.66
2022-09-09T08:14:24.933Z,71.50
2022-09-09T08:16:54.931Z,71.52
2022-09-09T08:19:24.599Z,71.97
2022-09-09T08:21:52.739Z,73.07
2022-09-09T08:24:20.742Z,72.83
2022-09-09T08:26:50.471Z,72.72
2022-09-09T08:29:20.571Z,70.14
2022-09-09T08:31:55.615Z,71.39
2022-09-09T08:34:23.180Z,71.15
2022-09-09T08:36:51.986Z,71.63
2022-09-09T08:39:22.918Z,71.29
2022-09-09T08:42:01.758Z,70.67
2022-09-09T08:44:39.084Z,70.49
2022-09-09T08:47:35.877Z,70.90
2022-09-09T08:50:35.132Z,69.95
2022-09-09T08:53:21.324Z,70.51
2022-09-09T08:55:51.223Z,69.57
2022-09-09T08:58:25.924Z,69.04
2022-09-09T09:01:10.786Z,67.38
2022-09-09T09:03:54.436Z,68.59
2022-09-09T09:06:34.585Z,69.89
2022-09-09T09:09:19.701Z,70.69
2022-09-09T09:11:53.589Z,70.47
2022-09-09T09:14:24.666Z,70.31
2022-09-09T09:16:57.430Z,68.82
2022-09-09T09:19:27.250Z,66.57
2022-09-09T09:22:11.322Z,66.95
2022-09-09T09:24:43.535Z,63.08
2022-09-09T09:27:15.801Z,61.94
2022-09-09T09:30:17.494Z,60.56
2022-09-09T09:32:37.633Z,61.02
2022-09-09T09:35:11.376Z,58.90
2022-09-09T09:40:25.560Z,58.54
2022-09-09T09:42:53.765Z,58.03
2022-09-09T09:45:35.223Z,55.37
2022-09-09T09:48:07.799Z,54.99
2022-09-09T09:50:36.934Z,52.52
2022-09-09T09:53:05.571Z,52.06
2022-09-09T09:55:38.102Z,49.15
2022-09-09T09:58:17.945Z,51.83
2022-09-09T10:00:50.777Z,53.71
2022-09-09T10:03:32.708Z,54.14
2022-09-09T10:06:01.743Z,53.94
2022-09-09T10:08:29.324Z,53.92
2022-09-09T10:11:15.749Z,52.09
2022-09-09T10:13:56.802Z,51.84
2022-09-09T10:16:47.604Z,51.32
2022-09-09T10:19:17.287Z,51.75
2022-09-09T10:21:44.072Z,51.16
2022-09-09T10:24:42.655Z,49.22
2022-09-09T10:27:26.922Z,51.86
2022-09-09T10:30:21.242Z,53.51
2022-09-09T10:32:53.861Z,53.45
2022-09-09T10:35:28.576Z,49.91
2022-09-09T10:38:04.447Z,50.70
2022-09-09T10:40:54.396Z,46.43
2022-09-09T10:43:27.070Z,49.84
2022-09-09T10:46:37.273Z,44.99
2022-09-09T10:49:25.390Z,47.24
2022-09-09T10:52:15.480Z,44.85
2022-09-09T10:54:57.551Z,46.24
2022-09-09T10:57:51.443Z,43.75
2022-09-09T11:00:20.785Z,44.52
2022-09-09T11:02:59.858Z,45.58
2022-09-09T11:05:46.024Z,41.86
2022-09-09T11:11:50.969Z,43.91
2022-09-09T11:14:43.664Z,42.41
2022-09-09T11:17:14.238Z,42.97
2022-09-09T11:19:43.874Z,44.05
2022-09-09T11:22:35.605Z,38.90
2022-09-09T11:25:17.651Z,42.06
2022-09-09T11:27:50.658Z,42.30
2022-09-09T11:30:44.196Z,40.76
2022-09-09T11:33:39.124Z,42.21
2022-09-09T11:36:26.253Z,45.13
2022-09-09T11:38:54.583Z,42.39
2022-09-09T11:41:22.236Z,43.31
2022-09-09T11:43:52.911Z,43.33
2022-09-09T11:46:22.390Z,40.83
2022-09-09T11:49:27.862Z,42.52
2022-09-09T11:51:55.918Z,42.60
2022-09-09T11:54:32.461Z,42.76
2022-09-09T11:56:59.714Z,43.08
2022-09-09T11:59:31.498Z,42.09
2022-09-09T12:02:05.532Z,44.36
2022-09-09T12:04:35.856Z,42.21
2022-09-09T12:07:25.615Z,40.82
2022-09-09T12:10:03.343Z,42.71
2022-09-09T12:12:32.832Z,42.06
2022-09-09T12:15:18.721Z,45.15
2022-09-09T12:17:47.798Z,41.82
2022-09-09T12:20:17.307Z,41.68
2022-09-09T12:23:01.843Z,42.51
2022-09-09T12:25:53.862Z,43.31
2022-09-09T12:28:43.091Z,44.08
2022-09-09T12:31:19.144Z,44.85
2022-09-09T12:33:48.306Z,45.23
2022-09-09T12:36:20.723Z,45.79
2022-09-09T12:38:47.792Z,45.68
2022-09-09T12:41:28.179Z,43.70
2022-09-09T12:44:07.112Z,45.13
2022-09-09T12:46:37.731Z,46.26
2022-09-09T12:49:05.572Z,45.37
2022-09-09T12:51:33.570Z,45.14
2022-09-09T12:54:00.916Z,45.35
2022-09-09T12:56:31.189Z,45.84
2022-09-09T12:58:59.383Z,47.23
2022-09-09T13:01:31.995Z,49.98
2022-09-09T13:03:59.378Z,48.16
2022-09-09T13:06:31.071Z,49.26
2022-09-09T13:09:00.396Z,47.44
2022-09-09T13:11:29.371Z,47.92
2022-09-09T13:13:57.569Z,47.77
2022-09-09T13:16:31.211Z,47.42
2022-09-09T13:18:59.257Z,48.04
2022-09-09T13:21:36.142Z,49.46
2022-09-09T13:24:07.291Z,47.09
2022-09-09T13:26:35.346Z,49.10
2022-09-09T13:29:19.067Z,47.78
2022-09-09T13:31:46.095Z,49.36
2022-09-09T13:34:28.317Z,49.89
2022-09-09T13:37:00.840Z,50.78
2022-09-09T13:39:27.637Z,47.26
2022-09-09T13:41:54.859Z,47.73
2022-09-09T13:44:27.225Z,48.06
2022-09-09T13:47:09.396Z,48.98
2022-09-09T13:49:36.965Z,48.10
2022-09-09T13:52:10.019Z,48.43
2022-09-09T13:54:36.725Z,46.18
2022-09-09T13:57:03.679Z,45.85
2022-09-09T13:59:54.041Z,47.04
2022-09-09T14:02:20.146Z,47.52
2022-09-09T14:04:51.776Z,48.62
2022-09-09T14:07:19.330Z,45.29
2022-09-09T14:09:50.885Z,46.58
2022-09-09T14:12:17.922Z,46.54
2022-09-09T14:14:44.978Z,46.32
2022-09-09T14:17:11.941Z,44.21
2022-09-09T14:19:38.707Z,46.59
2022-09-09T14:22:05.555Z,45.47
2022-09-09T14:24:33.739Z,45.50
2022-09-09T14:27:00.529Z,45.16
2022-09-09T14:29:27.737Z,45.83
2022-09-09T14:31:54.526Z,46.91
2022-09-09T14:34:21.366Z,46.84
2022-09-09T14:36:48.528Z,46.34
2022-09-09T14:39:15.238Z,47.42
2022-09-09T14:41:41.956Z,48.04
2022-09-09T14:44:09.657Z,48.77
2022-09-09T14:46:36.340Z,48.68
2022-09-09T14:49:03.074Z,49.21
2022-09-09T14:51:29.870Z,49.20
2022-09-09T14:53:59.930Z,49.46
2022-09-09T14:56:30.762Z,49.92
2022-09-09T14:58:59.688Z,50.82
2022-09-09T15:01:30.571Z,50.21
2022-09-09T15:04:02.212Z,49.77
2022-09-09T15:06:31.263Z,48.85
2022-09-09T15:09:01.502Z,49.54
2022-09-09T15:11:31.654Z,49.19
2022-09-09T15:13:59.303Z,50.34
2022-09-09T15:16:28.840Z,50.78
2022-09-09T15:18:57.733Z,50.79
2022-09-09T15:21:27.723Z,50.48
2022-09-09T15:23:54.963Z,50.02
2022-09-09T15:26:22.031Z,51.21
2022-09-09T15:28:50.995Z,50.52
2022-09-09T15:31:20.707Z,51.51
2022-09-09T15:33:52.348Z,51.54
2022-09-09T15:36:27.529Z,52.03
2022-09-09T15:38:55.800Z,52.30
2022-09-09T15:41:23.628Z,51.41
2022-09-09T15:43:52.925Z,52.25
2022-09-09T15:46:25.803Z,50.56
2022-09-09T15:48:54.366Z,51.36
2022-09-09T15:51:41.674Z,53.48
2022-09-09T15:54:10.670Z,52.30
2022-09-09T15:56:37.403Z,51.66
2022-09-09T15:59:04.512Z,51.61
2022-09-09T16:01:32.193Z,49.42
2022-09-09T16:04:00.023Z,52.49
2022-09-09T16:06:29.383Z,52.88
2022-09-09T16:08:57.543Z,52.25
2022-09-09T16:11:26.589Z,52.77
2022-09-09T16:13:54.803Z,49.09
2022-09-09T16:16:23.687Z,48.81
2022-09-09T16:18:53.107Z,51.00
2022-09-09T16:21:20.410Z,51.78
2022-09-09T16:23:47.241Z,50.45
2022-09-09T16:26:15.763Z,50.04
2022-09-09T16:28:43.081Z,53.97
2022-09-09T16:31:12.339Z,54.86
2022-09-09T16:33:39.068Z,55.63
2022-09-09T16:36:07.868Z,56.12
2022-09-09T16:38:34.819Z,55.67
2022-09-09T16:41:02.103Z,56.25
2022-09-09T16:43:28.844Z,56.80
2022-09-09T16:45:55.630Z,56.95
2022-09-09T16:48:22.491Z,57.37
2022-09-09T16:50:50.102Z,57.98
2022-09-09T16:53:16.791Z,57.92
2022-09-09T16:55:43.617Z,58.28
2022-09-09T16:58:12.197Z,59.09
2022-09-09T17:00:38.937Z,59.24
2022-09-09T17:03:05.710Z,59.61
2022-09-09T17:05:33.786Z,59.44
2022-09-09T17:08:00.481Z,59.94
2022-09-09T17:10:27.222Z,60.05
2022-09-09T17:12:53.965Z,59.94
2022-09-09T17:15:22.251Z,59.92
2022-09-09T17:17:51.056Z,59.92
2022-09-09T17:20:17.850Z,60.51
2022-09-09T17:22:44.710Z,60.45
2022-09-09T17:25:11.412Z,60.50
2022-09-09T17:27:38.241Z,60.19
2022-09-09T17:30:05.571Z,60.44
2022-09-09T17:32:32.244Z,60.33
2022-09-09T17:34:58.988Z,60.76
2022-09-09T17:37:25.746Z,60.96
2022-09-09T17:39:52.500Z,61.01
2022-09-09T17:42:19.405Z,61.25
2022-09-09T17:44:46.208Z,61.64
2022-09-09T17:47:12.883Z,61.26
2022-09-09T17:49:39.558Z,61.55
2022-09-09T17:52:06.983Z,60.95
2022-09-09T17:54:34.708Z,60.81
2022-09-09T17:57:01.845Z,58.96
2022-09-09T17:59:28.583Z,58.68
2022-09-09T18:01:55.621Z,58.34
2022-09-09T18:04:22.526Z,59.15
2022-09-09T18:06:51.714Z,59.39
2022-09-09T18:09:24.667Z,59.53
2022-09-09T18:11:54.694Z,59.81
2022-09-09T18:14:25.058Z,60.71
2022-09-09T18:16:52.090Z,60.63
2022-09-09T18:19:21.584Z,60.79
2022-09-09T18:21:49.431Z,61.24
2022-09-09T18:24:17.839Z,61.13
2022-09-09T18:26:45.705Z,61.14
2022-09-09T18:29:14.110Z,61.58
2022-09-09T18:31:42.698Z,61.47
2022-09-09T18:34:11.807Z,61.62
2022-09-09T18:36:42.572Z,61.66
2022-09-09T18:39:09.728Z,62.25
2022-09-09T18:41:38.502Z,62.45
2022-09-09T18:44:13.294Z,62.27
2022-09-09T18:46:41.387Z,61.87
2022-09-09T18:49:08.842Z,61.88
2022-09-09T18:51:37.202Z,62.03
2022-09-09T18:54:09.570Z,61.94
2022-09-09T18:56:37.008Z,62.04
2022-09-09T18:59:06.696Z,62.16
2022-09-09T19:01:35.801Z,62.26
2022-09-09T19:04:04.508Z,62.62
2022-09-09T19:06:32.921Z,62.26
2022-09-09T19:09:03.162Z,62.51
2022-09-09T19:11:31.228Z,62.66
2022-09-09T19:14:04.041Z,62.80
2022-09-09T19:16:33.171Z,63.39
2022-09-09T19:19:02.088Z,63.50
2022-09-09T19:21:34.210Z,64.23
2022-09-09T19:24:11.749Z,63.91
2022-09-09T19:26:45.290Z,64.11
2022-09-09T19:29:15.420Z,64.13
2022-09-09T19:32:01.994Z,64.40
2022-09-09T19:34:30.216Z,64.29
2022-09-09T19:36:57.349Z,64.44
2022-09-09T19:39:24.137Z,64.59
2022-09-09T19:41:50.837Z,64.80
2022-09-09T19:44:17.738Z,65.06
2022-09-09T19:46:46.705Z,65.02
2022-09-09T19:49:15.435Z,64.82
2022-09-09T19:51:42.450Z,64.35
2022-09-09T19:54:11.159Z,63.53
2022-09-09T19:56:39.904Z,63.44
2022-09-09T19:59:07.422Z,63.06
2022-09-09T20:01:40.028Z,63.26
2022-09-09T20:04:08.168Z,62.49
2022-09-09T20:06:42.644Z,62.50
2022-09-09T20:09:15.121Z,61.77
2022-09-09T20:11:43.339Z,60.78
2022-09-09T20:14:11.826Z,60.76
2022-09-09T20:16:38.740Z,60.92
2022-09-09T20:19:07.239Z,61.25
2022-09-09T20:21:36.796Z,61.48
2022-09-09T20:24:06.173Z,60.87
2022-09-09T20:26:35.311Z,60.92
2022-09-09T20:29:07.845Z,61.40
2022-09-09T20:31:37.179Z,61.60
2022-09-09T20:34:05.142Z,61.39
2022-09-09T20:36:34.483Z,60.48
2022-09-09T20:39:04.637Z,60.67
2022-09-09T20:41:32.601Z,61.18
2022-09-09T20:44:08.445Z,61.61
2022-09-09T20:46:37.488Z,61.68
2022-09-09T20:49:06.291Z,61.49
2022-09-09T20:51:34.264Z,61.78
2022-09-09T20:54:16.305Z,61.98
2022-09-09T20:56:44.601Z,62.12
2022-09-09T20:59:14.206Z,62.08
2022-09-09T21:01:41.547Z,62.29
2022-09-09T21:04:09.835Z,63.00
2022-09-09T21:06:36.656Z,62.91
2022-09-09T21:09:03.408Z,63.01
2022-09-09T21:11:30.146Z,63.16
2022-09-09T21:13:56.831Z,63.47
2022-09-09T21:16:23.555Z,63.99
2022-09-09T21:18:50.500Z,64.09
2022-09-09T21:21:21.284Z,64.15
2022-09-09T21:23:54.789Z,64.29
2022-09-09T21:26:22.458Z,64.57
2022-09-09T21:28:49.368Z,64.60
2022-09-09T21:31:17.194Z,64.89
2022-09-09T21:33:43.949Z,64.92
2022-09-09T21:36:11.559Z,64.93
2022-09-09T21:38:40.469Z,64.84
2022-09-09T21:41:09.156Z,65.07
2022-09-09T21:43:35.977Z,65.17
2022-09-09T21:46:07.951Z,65.18
2022-09-09T21:48:35.412Z,65.51
2022-09-09T21:51:04.578Z,65.64
2022-09-09T21:53:32.447Z,65.81
2022-09-09T21:56:07.287Z,65.88
2022-09-09T21:58:34.549Z,66.09
2022-09-09T22:01:01.641Z,66.12
2022-09-09T22:03:28.423Z,66.48
2022-09-09T22:05:56.211Z,66.20
2022-09-09T22:08:22.922Z,66.70
2022-09-09T22:10:49.646Z,66.88
2022-09-09T22:13:17.565Z,66.68
2022-09-09T22:15:45.854Z,67.20
2022-09-09T22:18:13.504Z,67.47
2022-09-09T22:20:42.758Z,67.99
2022-09-09T22:23:10.534Z,67.90
2022-09-09T22:25:38.178Z,67.66
2022-09-09T22:28:06.734Z,67.73
2022-09-09T22:30:34.034Z,67.74
2022-09-09T22:33:03.592Z,67.67
2022-09-09T22:35:30.253Z,67.95
2022-09-09T22:37:57.953Z,67.91
2022-09-09T22:40:24.990Z,67.69
2022-09-09T22:42:53.152Z,67.84
2022-09-09T22:45:21.846Z,68.12
2022-09-09T22:47:48.590Z,68.12
2022-09-09T22:50:15.404Z,68.31
2022-09-09T22:52:42.447Z,68.04
2022-09-09T22:55:09.547Z,68.20
2022-09-09T22:57:37.496Z,68.34
2022-09-09T23:00:07.990Z,68.64
2022-09-09T23:02:38.674Z,68.60
2022-09-09T23:05:09.074Z,68.59
2022-09-09T23:07:36.823Z,68.46
2022-09-09T23:10:07.085Z,68.27
2022-09-09T23:12:34.244Z,68.36
2022-09-09T23:15:01.001Z,68.87
2022-09-09T23:17:27.882Z,68.47
2022-09-09T23:19:57.680Z,69.06
2022-09-09T23:22:24.736Z,68.98
2022-09-09T23:24:52.917Z,69.46
2022-09-09T23:27:21.468Z,69.54
2022-09-09T23:29:48.955Z,69.76
2022-09-09T23:32:15.907Z,70.02
2022-09-09T23:34:42.644Z,70.25
2022-09-09T23:37:11.306Z,70.45
2022-09-09T23:39:40.486Z,70.55
2022-09-09T23:42:08.521Z,70.33
2022-09-09T23:44:38.407Z,70.24
2022-09-09T23:47:06.098Z,70.71
2022-09-09T23:49:36.812Z,70.51
2022-09-09T23:52:05.433Z,70.46
2022-09-09T23:54:33.181Z,70.23
2022-09-09T23:57:00.120Z,70.25
2022-09-09T23:59:26.886Z,70.26
